sensor_id;sensor_type;location;lat;lon;timestamp;temperature;humidity
54409;DHT22;40315;48.620;9.828;2022-11-15T00:00:24;8.90;99.90
54409;DHT22;40315;48.620;9.828;2022-11-15T00:03:10;8.80;99.90
54409;DHT22;40315;48.620;9.828;2022-11-15T00:06:01;8.70;99.90
54409;DHT22;40315;48.620;9.828;2022-11-15T00:08:47;8.70;99.90
54409;DHT22;40315;48.620;9.828;2022-11-15T00:11:33;8.70;99.90
54409;DHT22;40315;48.620;9.828;2022-11-15T00:14:19;8.60;99.90
54409;DHT22;40315;48.620;9.828;2022-11-15T00:17:05;9.10;99.90
54409;DHT22;40315;48.620;9.828;2022-11-15T00:19:51;8.70;99.90
54409;DHT22;40315;48.620;9.828;2022-11-15T00:22:36;8.70;99.90
54409;DHT22;40315;48.620;9.828;2022-11-15T00:25:22;8.90;99.90
54409;DHT22;40315;48.620;9.828;2022-11-15T00:28:07;8.70;99.90
54409;DHT22;40315;48.620;9.828;2022-11-15T00:30:53;8.70;99.90
54409;DHT22;40315;48.620;9.828;2022-11-15T00:33:43;8.70;99.90
54409;DHT22;40315;48.620;9.828;2022-11-15T00:36:29;8.70;99.90
54409;DHT22;40315;48.620;9.828;2022-11-15T00:39:17;8.70;99.90
54409;DHT22;40315;48.620;9.828;2022-11-15T00:42:03;9.40;99.90
54409;DHT22;40315;48.620;9.828;2022-11-15T00:44:48;8.70;99.90
54409;DHT22;40315;48.620;9.828;2022-11-15T00:47:34;8.70;99.90
54409;DHT22;40315;48.620;9.828;2022-11-15T00:50:21;8.70;99.90
54409;DHT22;40315;48.620;9.828;2022-11-15T00:53:07;8.60;99.90
54409;DHT22;40315;48.620;9.828;2022-11-15T00:55:53;8.80;99.90
54409;DHT22;40315;48.620;9.828;2022-11-15T00:58:39;9.50;99.90
54409;DHT22;40315;48.620;9.828;2022-11-15T01:01:24;8.60;99.90
54409;DHT22;40315;48.620;9.828;2022-11-15T01:04:10;8.50;99.90
54409;DHT22;40315;48.620;9.828;2022-11-15T01:06:57;8.50;99.90
54409;DHT22;40315;48.620;9.828;2022-11-15T01:09:42;8.60;99.90
54409;DHT22;40315;48.620;9.828;2022-11-15T01:12:28;8.50;99.90
54409;DHT22;40315;48.620;9.828;2022-11-15T01:15:14;8.50;99.90
54409;DHT22;40315;48.620;9.828;2022-11-15T01:17:59;8.50;99.90
54409;DHT22;40315;48.620;9.828;2022-11-15T01:20:44;8.50;99.90
54409;DHT22;40315;48.620;9.828;2022-11-15T01:23:31;8.50;99.90
54409;DHT22;40315;48.620;9.828;2022-11-15T01:26:18;8.40;99.90
54409;DHT22;40315;48.620;9.828;2022-11-15T01:29:03;8.30;99.90
54409;DHT22;40315;48.620;9.828;2022-11-15T01:31:49;8.40;99.90
54409;DHT22;40315;48.620;9.828;2022-11-15T01:34:34;8.30;99.90
54409;DHT22;40315;48.620;9.828;2022-11-15T01:37:20;8.30;99.90
54409;DHT22;40315;48.620;9.828;2022-11-15T01:40:08;8.20;99.90
54409;DHT22;40315;48.620;9.828;2022-11-15T01:46:28;8.10;99.90
54409;DHT22;40315;48.620;9.828;2022-11-15T01:49:17;8.10;99.90
54409;DHT22;40315;48.620;9.828;2022-11-15T01:52:08;8.10;99.90
54409;DHT22;40315;48.620;9.828;2022-11-15T01:54:59;8.10;99.90
54409;DHT22;40315;48.620;9.828;2022-11-15T01:57:49;7.90;99.90
54409;DHT22;40315;48.620;9.828;2022-11-15T02:03:23;7.70;99.90
54409;DHT22;40315;48.620;9.828;2022-11-15T02:06:11;7.60;99.90
54409;DHT22;40315;48.620;9.828;2022-11-15T02:08:57;7.50;99.90
54409;DHT22;40315;48.620;9.828;2022-11-15T02:11:44;7.50;99.90
54409;DHT22;40315;48.620;9.828;2022-11-15T02:14:33;8.00;99.90
54409;DHT22;40315;48.620;9.828;2022-11-15T02:17:28;7.40;99.90
54409;DHT22;40315;48.620;9.828;2022-11-15T02:20:35;7.40;99.90
54409;DHT22;40315;48.620;9.828;2022-11-15T02:23:48;7.40;99.90
54409;DHT22;40315;48.620;9.828;2022-11-15T02:27:03;7.30;99.90
54409;DHT22;40315;48.620;9.828;2022-11-15T02:30:04;7.20;99.90
54409;DHT22;40315;48.620;9.828;2022-11-15T02:32:57;7.20;99.90
54409;DHT22;40315;48.620;9.828;2022-11-15T02:35:47;7.10;99.90
54409;DHT22;40315;48.620;9.828;2022-11-15T02:38:40;7.20;99.90
54409;DHT22;40315;48.620;9.828;2022-11-15T02:41:34;7.10;99.90
54409;DHT22;40315;48.620;9.828;2022-11-15T02:44:24;7.00;99.90
54409;DHT22;40315;48.620;9.828;2022-11-15T02:47:13;6.90;99.90
54409;DHT22;40315;48.620;9.828;2022-11-15T02:50:05;6.90;99.90
54409;DHT22;40315;48.620;9.828;2022-11-15T02:52:52;7.00;99.90
54409;DHT22;40315;48.620;9.828;2022-11-15T02:55:40;6.90;99.90
54409;DHT22;40315;48.620;9.828;2022-11-15T02:58:41;6.80;99.90
54409;DHT22;40315;48.620;9.828;2022-11-15T03:01:38;6.80;99.90
54409;DHT22;40315;48.620;9.828;2022-11-15T03:04:36;6.80;99.90
54409;DHT22;40315;48.620;9.828;2022-11-15T03:07:28;6.70;99.90
54409;DHT22;40315;48.620;9.828;2022-11-15T03:10:20;6.60;99.90
54409;DHT22;40315;48.620;9.828;2022-11-15T03:13:12;6.60;99.90
54409;DHT22;40315;48.620;9.828;2022-11-15T03:16:03;6.50;99.90
54409;DHT22;40315;48.620;9.828;2022-11-15T03:18:54;6.50;99.90
54409;DHT22;40315;48.620;9.828;2022-11-15T03:21:42;6.40;99.90
54409;DHT22;40315;48.620;9.828;2022-11-15T03:24:34;6.80;99.90
54409;DHT22;40315;48.620;9.828;2022-11-15T03:27:22;6.40;99.90
54409;DHT22;40315;48.620;9.828;2022-11-15T03:30:10;6.90;99.90
54409;DHT22;40315;48.620;9.828;2022-11-15T03:32:58;6.40;99.90
54409;DHT22;40315;48.620;9.828;2022-11-15T03:35:44;6.30;99.90
54409;DHT22;40315;48.620;9.828;2022-11-15T03:38:32;6.30;99.90
54409;DHT22;40315;48.620;9.828;2022-11-15T03:41:23;6.30;99.90
54409;DHT22;40315;48.620;9.828;2022-11-15T03:44:14;6.30;99.90
54409;DHT22;40315;48.620;9.828;2022-11-15T03:47:06;6.30;99.90
54409;DHT22;40315;48.620;9.828;2022-11-15T03:49:55;6.20;99.90
54409;DHT22;40315;48.620;9.828;2022-11-15T03:52:44;7.30;99.90
54409;DHT22;40315;48.620;9.828;2022-11-15T03:55:32;6.20;99.90
54409;DHT22;40315;48.620;9.828;2022-11-15T03:58:19;6.20;99.90
54409;DHT22;40315;48.620;9.828;2022-11-15T04:01:04;6.30;99.90
54409;DHT22;40315;48.620;9.828;2022-11-15T04:03:50;6.20;99.90
54409;DHT22;40315;48.620;9.828;2022-11-15T04:06:35;6.30;99.90
54409;DHT22;40315;48.620;9.828;2022-11-15T04:09:21;6.30;99.90
54409;DHT22;40315;48.620;9.828;2022-11-15T04:12:06;6.50;99.90
54409;DHT22;40315;48.620;9.828;2022-11-15T04:14:53;6.60;99.90
54409;DHT22;40315;48.620;9.828;2022-11-15T04:17:53;6.90;99.90
54409;DHT22;40315;48.620;9.828;2022-11-15T04:20:39;7.00;99.90
54409;DHT22;40315;48.620;9.828;2022-11-15T04:23:38;7.10;99.90
54409;DHT22;40315;48.620;9.828;2022-11-15T04:26:41;7.20;99.90
54409;DHT22;40315;48.620;9.828;2022-11-15T04:29:27;7.20;99.90
54409;DHT22;40315;48.620;9.828;2022-11-15T04:32:23;7.20;99.90
54409;DHT22;40315;48.620;9.828;2022-11-15T04:35:08;7.40;99.90
54409;DHT22;40315;48.620;9.828;2022-11-15T04:37:54;7.40;99.90
54409;DHT22;40315;48.620;9.828;2022-11-15T04:40:39;7.50;99.90
54409;DHT22;40315;48.620;9.828;2022-11-15T04:43:24;7.50;99.90
54409;DHT22;40315;48.620;9.828;2022-11-15T04:46:10;7.50;99.90
54409;DHT22;40315;48.620;9.828;2022-11-15T04:48:57;7.50;99.90
54409;DHT22;40315;48.620;9.828;2022-11-15T04:51:42;7.50;99.90
54409;DHT22;40315;48.620;9.828;2022-11-15T04:54:28;7.50;99.90
54409;DHT22;40315;48.620;9.828;2022-11-15T04:57:14;7.70;99.90
54409;DHT22;40315;48.620;9.828;2022-11-15T04:59:59;7.50;99.90
54409;DHT22;40315;48.620;9.828;2022-11-15T05:02:45;7.50;99.90
54409;DHT22;40315;48.620;9.828;2022-11-15T05:05:49;7.50;99.90
54409;DHT22;40315;48.620;9.828;2022-11-15T05:08:35;7.50;99.90
54409;DHT22;40315;48.620;9.828;2022-11-15T05:11:20;7.50;99.90
54409;DHT22;40315;48.620;9.828;2022-11-15T05:14:06;7.50;99.90
54409;DHT22;40315;48.620;9.828;2022-11-15T05:16:52;8.20;99.90
54409;DHT22;40315;48.620;9.828;2022-11-15T05:19:37;7.50;99.90
54409;DHT22;40315;48.620;9.828;2022-11-15T05:22:24;7.50;99.90
54409;DHT22;40315;48.620;9.828;2022-11-15T05:25:10;7.50;99.90
54409;DHT22;40315;48.620;9.828;2022-11-15T05:27:55;7.40;99.90
54409;DHT22;40315;48.620;9.828;2022-11-15T05:30:41;7.40;99.90
54409;DHT22;40315;48.620;9.828;2022-11-15T05:33:27;7.40;99.90
54409;DHT22;40315;48.620;9.828;2022-11-15T05:36:16;7.40;99.90
54409;DHT22;40315;48.620;9.828;2022-11-15T05:39:06;7.30;99.90
54409;DHT22;40315;48.620;9.828;2022-11-15T05:41:54;7.30;99.90
54409;DHT22;40315;48.620;9.828;2022-11-15T05:44:46;7.20;99.90
54409;DHT22;40315;48.620;9.828;2022-11-15T05:47:34;7.20;99.90
54409;DHT22;40315;48.620;9.828;2022-11-15T05:50:21;7.10;99.90
54409;DHT22;40315;48.620;9.828;2022-11-15T05:53:06;7.00;99.90
54409;DHT22;40315;48.620;9.828;2022-11-15T05:55:54;7.20;99.90
54409;DHT22;40315;48.620;9.828;2022-11-15T05:58:39;6.90;99.90
54409;DHT22;40315;48.620;9.828;2022-11-15T06:01:25;6.90;99.90
54409;DHT22;40315;48.620;9.828;2022-11-15T06:04:11;6.80;99.90
54409;DHT22;40315;48.620;9.828;2022-11-15T06:06:58;6.70;99.90
54409;DHT22;40315;48.620;9.828;2022-11-15T06:09:43;6.70;99.90
54409;DHT22;40315;48.620;9.828;2022-11-15T06:12:30;6.70;99.90
54409;DHT22;40315;48.620;9.828;2022-11-15T06:15:16;6.50;99.90
54409;DHT22;40315;48.620;9.828;2022-11-15T06:18:01;6.60;99.90
54409;DHT22;40315;48.620;9.828;2022-11-15T06:20:47;6.90;99.90
54409;DHT22;40315;48.620;9.828;2022-11-15T06:23:34;7.00;99.90
54409;DHT22;40315;48.620;9.828;2022-11-15T06:26:19;6.50;99.90
54409;DHT22;40315;48.620;9.828;2022-11-15T06:29:06;6.60;99.90
54409;DHT22;40315;48.620;9.828;2022-11-15T06:31:52;6.50;99.90
54409;DHT22;40315;48.620;9.828;2022-11-15T06:34:37;6.60;99.90
54409;DHT22;40315;48.620;9.828;2022-11-15T06:37:23;6.90;99.90
54409;DHT22;40315;48.620;9.828;2022-11-15T06:40:10;6.50;99.90
54409;DHT22;40315;48.620;9.828;2022-11-15T06:42:59;6.50;99.90
54409;DHT22;40315;48.620;9.828;2022-11-15T06:45:45;6.50;99.90
54409;DHT22;40315;48.620;9.828;2022-11-15T06:48:33;6.40;99.90
54409;DHT22;40315;48.620;9.828;2022-11-15T06:51:19;6.40;99.90
54409;DHT22;40315;48.620;9.828;2022-11-15T06:54:05;6.60;99.90
54409;DHT22;40315;48.620;9.828;2022-11-15T06:56:50;6.30;99.90
54409;DHT22;40315;48.620;9.828;2022-11-15T06:59:36;6.30;99.90
54409;DHT22;40315;48.620;9.828;2022-11-15T07:02:22;6.50;99.90
54409;DHT22;40315;48.620;9.828;2022-11-15T07:07:55;6.20;99.90
54409;DHT22;40315;48.620;9.828;2022-11-15T07:10:41;6.30;99.90
54409;DHT22;40315;48.620;9.828;2022-11-15T07:13:27;6.30;99.90
54409;DHT22;40315;48.620;9.828;2022-11-15T07:16:13;6.40;99.90
54409;DHT22;40315;48.620;9.828;2022-11-15T07:19:00;6.30;99.90
54409;DHT22;40315;48.620;9.828;2022-11-15T07:21:45;6.30;99.90
54409;DHT22;40315;48.620;9.828;2022-11-15T07:24:32;6.30;99.90
54409;DHT22;40315;48.620;9.828;2022-11-15T07:27:17;6.70;99.90
54409;DHT22;40315;48.620;9.828;2022-11-15T07:30:04;6.30;99.90
54409;DHT22;40315;48.620;9.828;2022-11-15T07:32:52;6.40;99.90
54409;DHT22;40315;48.620;9.828;2022-11-15T07:35:39;7.30;99.90
54409;DHT22;40315;48.620;9.828;2022-11-15T07:38:26;6.60;99.90
54409;DHT22;40315;48.620;9.828;2022-11-15T07:41:12;6.40;99.90
54409;DHT22;40315;48.620;9.828;2022-11-15T07:43:57;6.30;99.90
54409;DHT22;40315;48.620;9.828;2022-11-15T07:46:43;6.40;99.90
54409;DHT22;40315;48.620;9.828;2022-11-15T07:49:29;6.50;99.90
54409;DHT22;40315;48.620;9.828;2022-11-15T07:52:15;6.50;99.90
54409;DHT22;40315;48.620;9.828;2022-11-15T07:55:01;6.80;99.90
54409;DHT22;40315;48.620;9.828;2022-11-15T07:57:46;6.60;99.90
54409;DHT22;40315;48.620;9.828;2022-11-15T08:00:33;6.70;99.90
54409;DHT22;40315;48.620;9.828;2022-11-15T08:03:18;6.70;99.90
54409;DHT22;40315;48.620;9.828;2022-11-15T08:06:05;6.80;99.90
54409;DHT22;40315;48.620;9.828;2022-11-15T08:08:51;6.80;99.90
54409;DHT22;40315;48.620;9.828;2022-11-15T08:11:37;6.90;99.90
54409;DHT22;40315;48.620;9.828;2022-11-15T08:14:22;6.90;99.90
54409;DHT22;40315;48.620;9.828;2022-11-15T08:17:10;7.00;99.90
54409;DHT22;40315;48.620;9.828;2022-11-15T08:19:56;7.00;99.90
54409;DHT22;40315;48.620;9.828;2022-11-15T08:22:41;6.90;99.90
54409;DHT22;40315;48.620;9.828;2022-11-15T08:25:29;6.90;99.90
54409;DHT22;40315;48.620;9.828;2022-11-15T08:28:16;7.00;99.90
54409;DHT22;40315;48.620;9.828;2022-11-15T08:31:03;7.00;99.90
54409;DHT22;40315;48.620;9.828;2022-11-15T08:33:48;7.00;99.90
54409;DHT22;40315;48.620;9.828;2022-11-15T08:36:34;7.30;99.90
54409;DHT22;40315;48.620;9.828;2022-11-15T08:39:20;7.20;99.90
54409;DHT22;40315;48.620;9.828;2022-11-15T08:42:07;7.20;99.90
54409;DHT22;40315;48.620;9.828;2022-11-15T08:44:52;7.30;99.90
54409;DHT22;40315;48.620;9.828;2022-11-15T08:47:38;7.50;99.90
54409;DHT22;40315;48.620;9.828;2022-11-15T08:50:24;8.10;99.90
54409;DHT22;40315;48.620;9.828;2022-11-15T08:53:10;7.50;99.90
54409;DHT22;40315;48.620;9.828;2022-11-15T08:55:55;7.60;99.90
54409;DHT22;40315;48.620;9.828;2022-11-15T08:58:42;7.90;99.90
54409;DHT22;40315;48.620;9.828;2022-11-15T09:01:28;8.10;99.90
54409;DHT22;40315;48.620;9.828;2022-11-15T09:04:13;8.40;99.90
54409;DHT22;40315;48.620;9.828;2022-11-15T09:06:58;8.70;99.90
54409;DHT22;40315;48.620;9.828;2022-11-15T09:09:44;8.90;99.90
54409;DHT22;40315;48.620;9.828;2022-11-15T09:12:30;9.20;99.90
54409;DHT22;40315;48.620;9.828;2022-11-15T09:15:17;9.90;99.90
54409;DHT22;40315;48.620;9.828;2022-11-15T09:18:03;9.40;99.90
54409;DHT22;40315;48.620;9.828;2022-11-15T09:20:49;9.50;99.90
54409;DHT22;40315;48.620;9.828;2022-11-15T09:23:34;9.80;99.90
54409;DHT22;40315;48.620;9.828;2022-11-15T09:26:20;9.90;99.90
54409;DHT22;40315;48.620;9.828;2022-11-15T09:29:05;10.10;99.90
54409;DHT22;40315;48.620;9.828;2022-11-15T09:31:53;10.30;99.90
54409;DHT22;40315;48.620;9.828;2022-11-15T09:34:38;10.60;99.90
54409;DHT22;40315;48.620;9.828;2022-11-15T09:37:24;11.10;99.90
54409;DHT22;40315;48.620;9.828;2022-11-15T09:40:11;11.70;99.90
54409;DHT22;40315;48.620;9.828;2022-11-15T09:43:08;11.40;99.90
54409;DHT22;40315;48.620;9.828;2022-11-15T09:46:03;11.40;99.90
54409;DHT22;40315;48.620;9.828;2022-11-15T09:48:53;11.50;99.90
54409;DHT22;40315;48.620;9.828;2022-11-15T09:51:30;11.60;99.90
54409;DHT22;40315;48.620;9.828;2022-11-15T09:54:05;11.80;99.90
54409;DHT22;40315;48.620;9.828;2022-11-15T09:56:39;11.80;99.90
54409;DHT22;40315;48.620;9.828;2022-11-15T09:59:27;11.90;99.90
54409;DHT22;40315;48.620;9.828;2022-11-15T10:02:10;12.00;99.90
54409;DHT22;40315;48.620;9.828;2022-11-15T10:04:42;12.10;99.90
54409;DHT22;40315;48.620;9.828;2022-11-15T10:07:14;12.20;99.90
54409;DHT22;40315;48.620;9.828;2022-11-15T10:09:49;12.20;99.90
54409;DHT22;40315;48.620;9.828;2022-11-15T10:12:18;12.20;99.90
54409;DHT22;40315;48.620;9.828;2022-11-15T10:14:49;12.20;99.90
54409;DHT22;40315;48.620;9.828;2022-11-15T10:17:39;12.30;99.90
54409;DHT22;40315;48.620;9.828;2022-11-15T10:20:14;12.50;99.90
54409;DHT22;40315;48.620;9.828;2022-11-15T10:22:49;12.40;99.90
54409;DHT22;40315;48.620;9.828;2022-11-15T10:25:20;13.30;99.90
54409;DHT22;40315;48.620;9.828;2022-11-15T10:27:53;12.50;99.90
54409;DHT22;40315;48.620;9.828;2022-11-15T10:30:30;12.60;99.90
54409;DHT22;40315;48.620;9.828;2022-11-15T10:32:57;12.60;99.90
54409;DHT22;40315;48.620;9.828;2022-11-15T10:35:28;12.60;99.90
54409;DHT22;40315;48.620;9.828;2022-11-15T10:38:05;12.60;99.90
54409;DHT22;40315;48.620;9.828;2022-11-15T10:40:33;12.70;99.90
54409;DHT22;40315;48.620;9.828;2022-11-15T10:43:10;12.80;99.90
54409;DHT22;40315;48.620;9.828;2022-11-15T10:45:39;12.90;99.90
54409;DHT22;40315;48.620;9.828;2022-11-15T10:48:21;12.90;99.90
54409;DHT22;40315;48.620;9.828;2022-11-15T10:50:52;13.00;99.90
54409;DHT22;40315;48.620;9.828;2022-11-15T10:53:29;13.00;99.90
54409;DHT22;40315;48.620;9.828;2022-11-15T10:56:00;13.10;99.90
54409;DHT22;40315;48.620;9.828;2022-11-15T10:58:33;13.10;99.90
54409;DHT22;40315;48.620;9.828;2022-11-15T11:01:15;12.80;99.90
54409;DHT22;40315;48.620;9.828;2022-11-15T11:03:44;12.90;99.90
54409;DHT22;40315;48.620;9.828;2022-11-15T11:06:15;13.10;99.90
54409;DHT22;40315;48.620;9.828;2022-11-15T11:08:55;13.20;99.90
54409;DHT22;40315;48.620;9.828;2022-11-15T11:11:22;13.20;99.90
54409;DHT22;40315;48.620;9.828;2022-11-15T11:13:49;13.40;99.90
54409;DHT22;40315;48.620;9.828;2022-11-15T11:16:26;13.40;99.90
54409;DHT22;40315;48.620;9.828;2022-11-15T11:19:04;13.50;99.90
54409;DHT22;40315;48.620;9.828;2022-11-15T11:21:43;13.70;99.90
54409;DHT22;40315;48.620;9.828;2022-11-15T11:24:22;13.70;99.90
54409;DHT22;40315;48.620;9.828;2022-11-15T11:27:01;13.80;99.90
54409;DHT22;40315;48.620;9.828;2022-11-15T11:29:49;14.00;99.90
54409;DHT22;40315;48.620;9.828;2022-11-15T11:32:40;14.00;99.90
54409;DHT22;40315;48.620;9.828;2022-11-15T11:35:12;14.20;99.90
54409;DHT22;40315;48.620;9.828;2022-11-15T11:37:56;14.30;99.90
54409;DHT22;40315;48.620;9.828;2022-11-15T11:40:32;14.40;99.90
54409;DHT22;40315;48.620;9.828;2022-11-15T11:43:06;14.60;99.90
54409;DHT22;40315;48.620;9.828;2022-11-15T11:45:58;14.60;99.90
54409;DHT22;40315;48.620;9.828;2022-11-15T11:48:39;14.70;99.90
54409;DHT22;40315;48.620;9.828;2022-11-15T11:51:13;14.80;99.90
54409;DHT22;40315;48.620;9.828;2022-11-15T11:53:52;14.80;99.90
54409;DHT22;40315;48.620;9.828;2022-11-15T11:56:26;14.80;99.90
54409;DHT22;40315;48.620;9.828;2022-11-15T11:59:02;15.00;99.90
54409;DHT22;40315;48.620;9.828;2022-11-15T12:01:35;15.10;99.90
54409;DHT22;40315;48.620;9.828;2022-11-15T12:04:09;15.30;99.90
54409;DHT22;40315;48.620;9.828;2022-11-15T12:06:41;15.10;99.90
54409;DHT22;40315;48.620;9.828;2022-11-15T12:09:16;15.00;99.90
54409;DHT22;40315;48.620;9.828;2022-11-15T12:11:50;14.90;99.90
54409;DHT22;40315;48.620;9.828;2022-11-15T12:14:26;14.80;99.90
54409;DHT22;40315;48.620;9.828;2022-11-15T12:16:54;14.80;99.90
54409;DHT22;40315;48.620;9.828;2022-11-15T12:19:23;14.70;99.90
54409;DHT22;40315;48.620;9.828;2022-11-15T12:21:56;14.80;99.90
54409;DHT22;40315;48.620;9.828;2022-11-15T12:24:31;14.80;99.90
54409;DHT22;40315;48.620;9.828;2022-11-15T12:27:03;14.70;99.90
54409;DHT22;40315;48.620;9.828;2022-11-15T12:29:37;14.90;99.90
54409;DHT22;40315;48.620;9.828;2022-11-15T12:32:11;14.90;99.90
54409;DHT22;40315;48.620;9.828;2022-11-15T12:34:46;14.90;99.90
54409;DHT22;40315;48.620;9.828;2022-11-15T12:40:31;15.00;99.90
54409;DHT22;40315;48.620;9.828;2022-11-15T12:46:02;15.10;99.90
54409;DHT22;40315;48.620;9.828;2022-11-15T12:48:51;15.10;99.90
54409;DHT22;40315;48.620;9.828;2022-11-15T12:51:21;15.20;99.90
54409;DHT22;40315;48.620;9.828;2022-11-15T12:53:48;15.40;99.90
54409;DHT22;40315;48.620;9.828;2022-11-15T12:56:23;15.40;99.90
54409;DHT22;40315;48.620;9.828;2022-11-15T12:58:54;15.40;99.90
54409;DHT22;40315;48.620;9.828;2022-11-15T13:01:55;15.50;99.90
54409;DHT22;40315;48.620;9.828;2022-11-15T13:04:26;15.50;99.90
54409;DHT22;40315;48.620;9.828;2022-11-15T13:06:55;15.40;99.90
54409;DHT22;40315;48.620;9.828;2022-11-15T13:09:51;15.20;99.90
54409;DHT22;40315;48.620;9.828;2022-11-15T13:12:50;14.90;99.90
54409;DHT22;40315;48.620;9.828;2022-11-15T13:15:38;14.80;99.90
54409;DHT22;40315;48.620;9.828;2022-11-15T13:18:37;15.00;99.90
54409;DHT22;40315;48.620;9.828;2022-11-15T13:21:18;15.20;99.90
54409;DHT22;40315;48.620;9.828;2022-11-15T13:24:04;15.30;99.90
54409;DHT22;40315;48.620;9.828;2022-11-15T13:26:31;15.30;99.90
54409;DHT22;40315;48.620;9.828;2022-11-15T13:29:00;15.30;99.90
54409;DHT22;40315;48.620;9.828;2022-11-15T13:31:30;15.30;99.90
54409;DHT22;40315;48.620;9.828;2022-11-15T13:34:22;15.30;99.90
54409;DHT22;40315;48.620;9.828;2022-11-15T13:36:51;15.30;99.90
54409;DHT22;40315;48.620;9.828;2022-11-15T13:39:26;15.20;99.90
54409;DHT22;40315;48.620;9.828;2022-11-15T13:41:56;15.00;99.90
54409;DHT22;40315;48.620;9.828;2022-11-15T13:44:26;15.00;99.90
54409;DHT22;40315;48.620;9.828;2022-11-15T13:47:13;14.90;99.90
54409;DHT22;40315;48.620;9.828;2022-11-15T13:49:40;15.00;99.90
54409;DHT22;40315;48.620;9.828;2022-11-15T13:52:11;14.90;99.90
54409;DHT22;40315;48.620;9.828;2022-11-15T13:54:42;14.80;99.90
54409;DHT22;40315;48.620;9.828;2022-11-15T13:57:13;14.80;99.90
54409;DHT22;40315;48.620;9.828;2022-11-15T13:59:47;14.80;99.90
54409;DHT22;40315;48.620;9.828;2022-11-15T14:02:17;14.80;99.90
54409;DHT22;40315;48.620;9.828;2022-11-15T14:04:47;14.90;99.90
54409;DHT22;40315;48.620;9.828;2022-11-15T14:07:17;14.80;99.90
54409;DHT22;40315;48.620;9.828;2022-11-15T14:09:46;14.80;99.90
54409;DHT22;40315;48.620;9.828;2022-11-15T14:12:31;14.60;99.90
54409;DHT22;40315;48.620;9.828;2022-11-15T14:15:30;14.50;99.90
54409;DHT22;40315;48.620;9.828;2022-11-15T14:17:49;14.40;99.90
54409;DHT22;40315;48.620;9.828;2022-11-15T14:20:27;14.40;99.90
54409;DHT22;40315;48.620;9.828;2022-11-15T14:22:58;14.30;99.90
54409;DHT22;40315;48.620;9.828;2022-11-15T14:25:27;14.30;99.90
54409;DHT22;40315;48.620;9.828;2022-11-15T14:28:15;14.30;99.90
54409;DHT22;40315;48.620;9.828;2022-11-15T14:30:44;14.30;99.90
54409;DHT22;40315;48.620;9.828;2022-11-15T14:33:22;14.20;99.90
54409;DHT22;40315;48.620;9.828;2022-11-15T14:35:49;14.10;99.90
54409;DHT22;40315;48.620;9.828;2022-11-15T14:38:16;14.00;99.90
54409;DHT22;40315;48.620;9.828;2022-11-15T14:40:44;14.00;99.90
54409;DHT22;40315;48.620;9.828;2022-11-15T14:43:14;13.90;99.90
54409;DHT22;40315;48.620;9.828;2022-11-15T14:45:42;13.90;99.90
54409;DHT22;40315;48.620;9.828;2022-11-15T14:48:09;13.80;99.90
54409;DHT22;40315;48.620;9.828;2022-11-15T14:50:39;13.80;99.90
54409;DHT22;40315;48.620;9.828;2022-11-15T14:53:06;13.70;99.90
54409;DHT22;40315;48.620;9.828;2022-11-15T14:55:34;13.70;99.90
54409;DHT22;40315;48.620;9.828;2022-11-15T14:58:02;13.50;99.90
54409;DHT22;40315;48.620;9.828;2022-11-15T15:00:34;13.50;99.90
54409;DHT22;40315;48.620;9.828;2022-11-15T15:03:04;13.40;99.90
54409;DHT22;40315;48.620;9.828;2022-11-15T15:05:33;13.40;99.90
54409;DHT22;40315;48.620;9.828;2022-11-15T15:08:03;13.40;99.90
54409;DHT22;40315;48.620;9.828;2022-11-15T15:10:32;13.30;99.90
54409;DHT22;40315;48.620;9.828;2022-11-15T15:13:00;13.10;99.90
54409;DHT22;40315;48.620;9.828;2022-11-15T15:15:32;13.10;99.90
54409;DHT22;40315;48.620;9.828;2022-11-15T15:17:59;12.90;99.90
54409;DHT22;40315;48.620;9.828;2022-11-15T15:20:27;12.80;99.90
54409;DHT22;40315;48.620;9.828;2022-11-15T15:22:56;12.50;99.90
54409;DHT22;40315;48.620;9.828;2022-11-15T15:25:26;12.70;99.90
54409;DHT22;40315;48.620;9.828;2022-11-15T15:27:54;12.60;99.90
54409;DHT22;40315;48.620;9.828;2022-11-15T15:30:22;12.50;99.90
54409;DHT22;40315;48.620;9.828;2022-11-15T15:32:49;12.40;99.90
54409;DHT22;40315;48.620;9.828;2022-11-15T15:35:17;12.30;99.90
54409;DHT22;40315;48.620;9.828;2022-11-15T15:37:49;12.20;99.90
54409;DHT22;40315;48.620;9.828;2022-11-15T15:40:19;12.20;99.90
54409;DHT22;40315;48.620;9.828;2022-11-15T15:42:47;12.20;99.90
54409;DHT22;40315;48.620;9.828;2022-11-15T15:45:14;12.10;99.90
54409;DHT22;40315;48.620;9.828;2022-11-15T15:47:42;12.10;99.90
54409;DHT22;40315;48.620;9.828;2022-11-15T15:50:20;12.00;99.90
54409;DHT22;40315;48.620;9.828;2022-11-15T15:52:50;12.00;99.90
54409;DHT22;40315;48.620;9.828;2022-11-15T15:55:17;11.90;99.90
54409;DHT22;40315;48.620;9.828;2022-11-15T15:57:47;11.90;99.90
54409;DHT22;40315;48.620;9.828;2022-11-15T16:00:17;11.90;99.90
54409;DHT22;40315;48.620;9.828;2022-11-15T16:02:45;11.80;99.90
54409;DHT22;40315;48.620;9.828;2022-11-15T16:05:12;11.80;99.90
54409;DHT22;40315;48.620;9.828;2022-11-15T16:07:40;11.80;99.90
54409;DHT22;40315;48.620;9.828;2022-11-15T16:10:20;11.70;99.90
54409;DHT22;40315;48.620;9.828;2022-11-15T16:12:48;11.80;99.90
54409;DHT22;40315;48.620;9.828;2022-11-15T16:15:15;11.70;99.90
54409;DHT22;40315;48.620;9.828;2022-11-15T16:17:45;11.60;99.90
54409;DHT22;40315;48.620;9.828;2022-11-15T16:20:22;11.60;99.90
54409;DHT22;40315;48.620;9.828;2022-11-15T16:22:50;11.60;99.90
54409;DHT22;40315;48.620;9.828;2022-11-15T16:27:46;11.50;99.90
54409;DHT22;40315;48.620;9.828;2022-11-15T16:30:14;11.50;99.90
54409;DHT22;40315;48.620;9.828;2022-11-15T16:32:42;11.40;99.90
54409;DHT22;40315;48.620;9.828;2022-11-15T16:35:11;11.40;99.90
54409;DHT22;40315;48.620;9.828;2022-11-15T16:37:39;11.40;99.90
54409;DHT22;40315;48.620;9.828;2022-11-15T16:40:29;11.30;99.90
54409;DHT22;40315;48.620;9.828;2022-11-15T16:42:56;11.30;99.90
54409;DHT22;40315;48.620;9.828;2022-11-15T16:45:26;11.20;99.90
54409;DHT22;40315;48.620;9.828;2022-11-15T16:47:55;11.20;99.90
54409;DHT22;40315;48.620;9.828;2022-11-15T16:50:24;11.20;99.90
54409;DHT22;40315;48.620;9.828;2022-11-15T16:52:52;11.20;99.90
54409;DHT22;40315;48.620;9.828;2022-11-15T16:55:24;11.30;99.90
54409;DHT22;40315;48.620;9.828;2022-11-15T16:57:52;11.20;99.90
54409;DHT22;40315;48.620;9.828;2022-11-15T17:00:20;11.40;99.90
54409;DHT22;40315;48.620;9.828;2022-11-15T17:02:49;11.10;99.90
54409;DHT22;40315;48.620;9.828;2022-11-15T17:05:21;11.00;99.90
54409;DHT22;40315;48.620;9.828;2022-11-15T17:07:50;11.00;99.90
54409;DHT22;40315;48.620;9.828;2022-11-15T17:10:19;11.00;99.90
54409;DHT22;40315;48.620;9.828;2022-11-15T17:12:50;10.90;99.90
54409;DHT22;40315;48.620;9.828;2022-11-15T17:15:18;10.90;99.90
54409;DHT22;40315;48.620;9.828;2022-11-15T17:17:50;10.90;99.90
54409;DHT22;40315;48.620;9.828;2022-11-15T17:20:18;10.90;99.90
54409;DHT22;40315;48.620;9.828;2022-11-15T17:22:45;10.80;99.90
54409;DHT22;40315;48.620;9.828;2022-11-15T17:25:13;10.80;99.90